Airfield :
LOGIN :

Register | Disclaimer

   EN    FR    IT 

 










Legend :    VFR   Marginal VFR   IFR   Intensive IFR   Very Intensive IFR
Visi :
Ceiling :
>= 8 km
>= 3000ft
5 to 8 km
1000 to 3000 ft
1500m to 5 km
500 to 1000 ft
800 to 1500m
200 to 500 ft
< 800m
< 200 ft
Symbols :   Thunderstorms  Fog  Heavy snow  Heavy precipitations  Wind > 20 kt
SIGMETs :     Misc.  Thunderstorms  Icing  Turbulence  Mountain Waves  Volcanic Ashes






- Airport Elevation : 699 ft
- IATA code : PAD


EDLP - Paderborn Lippstadt

CURRENT METAR :
  • 290750Z VRB02KT 0300 R24/0375N FG VV/// 06/06 Q1016

EXPIRED METARs :
  • 290720Z VRB02KT 0400 R24/0550N FG VV/// 06/06 Q1016
  • 290650Z VRB02KT 0400 R24/0500N FG VV/// 06/06 Q1015
  • 290620Z VRB02KT 0450 R24/0600N FG VV/// 06/06 Q1015
  • 290550Z VRB02KT 0450 R24/0550N FG VV/// 06/06 Q1015
  • 290520Z VRB02KT 0450 R24/0550N FG VV/// 06/06 Q1015

TAF TAF EDLP
Valid from the 29 at 06:00 until the 30 at 06:00 UTC


290500Z 2906/3006 27003KT 0400 -DZ FG BKN001
TEMPO 2906/2911 0100 DZRA FG OVC000
BECMG 2911/2914 4000 BR BKN004
BECMG 2919/2922 1500 BKN001
TEMPO 2922/3006 0700 FG
PROB30
TEMPO 3000/3006 0300 DZ FG OVC000



MET'MAP, your aeronautical weather chart ! - Copyright ORBIFLY December 2007 - Disclaimer

ORBIFLY MET'MAP TEAM :

Programming & Development : Alexandra Zaïnal
Original concept : Baudouin d'Aumeries
Technical & hardware support : Manuel Goepfert
Assistance : Marc-Olivier Méhu




SOURCES & CREDITS :

   NOAA